Juan de Fuca Strait - east entrance: Past 24 Hour Conditions

 

Halibut Bank - 46146

08:00 PM PST 20 January 2018Buoy position: 49.34N 123.72W
Disclaimer

This table is a summary of hourly weather conditions for the past 24 hours.
Please note that these observations might not always be representative of weather conditions over their associated marine area.

Date / Time
(PST)
Wind(knots) Wave height(m) Wave period(s) Pressure(kPa) Air tempC) Water tempC)
20 January 2018
20:00 ESE 25 gust 29 1.5 5.0 100.9 7 8
19:00 ESE 25 gust 29 1.5 4.0 101.0 7 8
18:00 E 27 gust 33 1.3 4.0 101.0 6 8
17:00 ESE 29 gust 35 1.0 4.0 101.1 6 8
16:00 E 27 gust 31 0.9 4.0 101.1 7 8
15:00 ESE 23 gust 27 1.0 4.0 101.2 7 8
14:00 SE 23 gust 27 0.9 4.0 101.3 7 8
13:00 ESE 23 gust 29 0.9 4.0 101.3 7 7
12:00 N/A N/A N/A N/A N/A N/A
11:00 N/A N/A N/A N/A N/A N/A
10:00 ESE 19 gust 21 0.5 4.0 101.4 6 8
9:00 SE 12 gust 14 0.5 4.0 101.4 7 8
8:00 SE 14 gust 16 0.5 3.0 101.3 7 8
7:00 SE 14 gust 18 0.5 3.0 101.3 7 8
6:00 SSE 14 gust 18 0.6 3.0 101.3 7 8
5:00 SE 16 gust 19 0.5 3.0 101.2 7 8
4:00 SSE 16 gust 18 0.4 3.0 101.2 7 7
3:00 SE 12 gust 14 0.4 4.0 101.2 7 7
2:00 SSE 10 gust 12 0.4 4.0 101.1 8 7
1:00 SE 6 gust 8 0.5 3.0 101.1 8 7
0:00 ESE 8 gust 10 0.6 4.0 101.1 8 7
19 January 2018
23:00 N/A N/A N/A N/A N/A N/A
22:00 ESE 12 gust 14 0.8 5.0 101.0 8 8
21:00 SE 12 gust 14 0.8 4.0 100.9 8 8
20:00 SE 16 gust 18 0.9 4.0 100.8 8 8

Zoom-in to make a selection

Map of Pacific - Georgia Basin marine weather areas Tsawwassen Ferry Terminal Sentry Shoal - 46131 Halibut Bank - 46146 La Perouse Bank - 46206 Discovery Island Esquimalt Harbour Kelp Reefs Malahat Race Rocks Lightstation Saturna Island Sheringham Point University of Victoria Victoria Gonzales Victoria Int'l Airport Ballenas Islands Campbell River Airport Comox Airport Entrance Island Fanny Island Nanaimo Airport Sisters Islets Estevan Point Tofino Airport Grief Point Powell River Airport Sechelt Point Atkinson Sand Heads Lightstation Vancouver Harbour Vancouver Int'l Airport West Vancouver Port Alberni Howe Sound - Pam Rocks Squamish Airport
Legend:
buoy Buoy
land station Land Station

Pacific - Georgia Basin Area

Another Region

What we are doing

Date modified: